Time;durP1;ratioP1;P1;durP2;ratioP2;P2;SDS_P1;SDS_P2;PMS_P1;PMS_P2;Temp;Humidity;BMP_temperature;BMP_pressure;BME280_temperature;BME280_humidity;BME280_pressure;Samples;Min_cycle;Max_cycle;Signal;HPM_P1;HPM_P2
2021/12/03 00:02:10;;;;;;;;;;;20.20;37.20;;;;;;5010697;28;20387;-52
2021/12/03 00:04:36;;;;;;;;;;;20.20;37.20;;;;;;5007524;28;19937;-52
2021/12/03 00:07:03;;;;;;;;;;;20.20;37.20;;;;;;4993752;28;20013;-52
2021/12/03 00:09:34;;;;;;;;;;;20.20;37.20;;;;;;5012912;28;19933;-50
2021/12/03 00:12:01;;;;;;;;;;;20.20;37.10;;;;;;5011087;28;19941;-54
2021/12/03 00:14:28;;;;;;;;;;;20.20;37.80;;;;;;4994200;28;19965;-56
2021/12/03 00:16:55;;;;;;;;;;;20.20;37.20;;;;;;4992357;28;19930;-57
2021/12/03 00:19:23;;;;;;;;;;;20.20;37.20;;;;;;4991518;28;19993;-51
2021/12/03 00:21:50;;;;;;;;;;;20.20;37.20;;;;;;4991919;28;19933;-54
2021/12/03 00:24:16;;;;;;;;;;;20.20;37.10;;;;;;4994615;28;19926;-52
2021/12/03 00:26:43;;;;;;;;;;;20.20;37.20;;;;;;4992151;28;20020;-53
2021/12/03 00:29:10;;;;;;;;;;;20.20;37.10;;;;;;5003346;28;19984;-58
2021/12/03 00:31:37;;;;;;;;;;;20.20;37.10;;;;;;4990616;28;20025;-52
2021/12/03 00:34:03;;;;;;;;;;;20.20;37.20;;;;;;4991878;28;20274;-51
2021/12/03 00:36:32;;;;;;;;;;;20.20;37.10;;;;;;4993153;28;19941;-52
2021/12/03 00:38:59;;;;;;;;;;;20.20;37.20;;;;;;5011348;28;19926;-54
2021/12/03 00:41:29;;;;;;;;;;;20.20;37.10;;;;;;4997255;28;19926;-49
2021/12/03 00:43:56;;;;;;;;;;;20.20;37.10;;;;;;5005373;28;19979;-51
2021/12/03 00:46:23;;;;;;;;;;;20.20;37.10;;;;;;5001765;28;19925;-52
2021/12/03 00:48:50;;;;;;;;;;;20.20;37.10;;;;;;4999785;28;19934;-51
2021/12/03 00:51:18;;;;;;;;;;;20.20;37.20;;;;;;4996105;28;19989;-54
2021/12/03 00:53:46;;;;;;;;;;;20.30;37.20;;;;;;4995861;28;20032;-54
2021/12/03 00:56:13;;;;;;;;;;;20.20;37.10;;;;;;5012758;28;20301;-54
2021/12/03 00:58:39;;;;;;;;;;;20.20;37.10;;;;;;4995893;28;19969;-51
2021/12/03 01:01:06;;;;;;;;;;;20.20;37.10;;;;;;4998161;28;20306;-53
2021/12/03 01:03:33;;;;;;;;;;;20.20;37.10;;;;;;5000389;28;19925;-53
2021/12/03 01:06:00;;;;;;;;;;;20.20;37.10;;;;;;5015756;28;20449;-50
2021/12/03 01:08:27;;;;;;;;;;;20.20;37.10;;;;;;5006219;28;19926;-54
2021/12/03 01:10:55;;;;;;;;;;;20.20;37.10;;;;;;4996327;28;19984;-53
2021/12/03 01:13:22;;;;;;;;;;;20.20;37.70;;;;;;4994769;28;19976;-51
2021/12/03 01:15:49;;;;;;;;;;;20.20;37.10;;;;;;5005512;28;19930;-54
2021/12/03 01:18:16;;;;;;;;;;;20.20;37.10;;;;;;5000197;28;19948;-52
2021/12/03 01:20:43;;;;;;;;;;;20.20;37.10;;;;;;4996578;28;20650;-49
2021/12/03 01:23:12;;;;;;;;;;;20.20;37.10;;;;;;5003482;28;19998;-51
2021/12/03 01:25:39;;;;;;;;;;;20.30;37.20;;;;;;5003269;28;19934;-53
2021/12/03 01:28:07;;;;;;;;;;;20.20;37.10;;;;;;4995453;28;19969;-55
2021/12/03 01:30:34;;;;;;;;;;;20.20;37.10;;;;;;5020579;28;20016;-53
2021/12/03 01:33:02;;;;;;;;;;;20.20;37.10;;;;;;5015101;28;19926;-54
2021/12/03 01:35:29;;;;;;;;;;;20.20;37.10;;;;;;5014565;28;19948;-52
2021/12/03 01:37:56;;;;;;;;;;;20.20;37.10;;;;;;5011011;28;19980;-55
2021/12/03 01:40:23;;;;;;;;;;;20.20;37.00;;;;;;5006251;28;19948;-54
2021/12/03 01:42:50;;;;;;;;;;;20.20;37.10;;;;;;5003000;28;19925;-52
2021/12/03 01:45:19;;;;;;;;;;;20.20;37.00;;;;;;5009015;28;19972;-52
2021/12/03 01:47:46;;;;;;;;;;;20.20;37.10;;;;;;4993997;28;19929;-55
2021/12/03 01:50:13;;;;;;;;;;;20.30;37.10;;;;;;5003278;28;19932;-53
2021/12/03 01:52:39;;;;;;;;;;;20.20;37.00;;;;;;5013780;28;20049;-54
2021/12/03 01:55:07;;;;;;;;;;;20.20;37.00;;;;;;5000919;28;20028;-55
2021/12/03 01:57:34;;;;;;;;;;;20.20;37.00;;;;;;5013761;28;20021;-50
2021/12/03 02:00:01;;;;;;;;;;;20.20;37.00;;;;;;4996180;28;19968;-54
2021/12/03 02:02:29;;;;;;;;;;;20.20;37.00;;;;;;4993609;28;19926;-49
2021/12/03 02:04:57;;;;;;;;;;;20.20;37.00;;;;;;4998116;28;19930;-50
2021/12/03 02:07:24;;;;;;;;;;;20.20;37.00;;;;;;4996193;28;19925;-52
2021/12/03 02:09:51;;;;;;;;;;;20.20;37.00;;;;;;4997557;28;20316;-53
2021/12/03 02:12:18;;;;;;;;;;;20.20;37.00;;;;;;5014017;28;19965;-54
2021/12/03 02:14:45;;;;;;;;;;;20.20;37.00;;;;;;4997627;28;20331;-54
2021/12/03 02:17:12;;;;;;;;;;;20.20;37.00;;;;;;4993908;28;19930;-51
2021/12/03 02:19:40;;;;;;;;;;;20.20;37.00;;;;;;4999210;28;19934;-55
2021/12/03 02:22:08;;;;;;;;;;;20.20;37.00;;;;;;5013576;28;19949;-49
2021/12/03 02:24:36;;;;;;;;;;;20.20;37.00;;;;;;5013415;28;19961;-55
2021/12/03 02:27:03;;;;;;;;;;;20.20;37.00;;;;;;5013504;28;19932;-49
2021/12/03 02:29:30;;;;;;;;;;;20.20;37.00;;;;;;5006442;28;19925;-52
2021/12/03 02:31:56;;;;;;;;;;;20.20;37.00;;;;;;5006899;28;19969;-49
2021/12/03 02:34:23;;;;;;;;;;;20.20;37.00;;;;;;4994368;28;19973;-50
2021/12/03 02:36:50;;;;;;;;;;;20.20;37.00;;;;;;4993603;28;19996;-53
2021/12/03 02:39:18;;;;;;;;;;;20.20;37.30;;;;;;4995756;28;19932;-50
2021/12/03 02:41:45;;;;;;;;;;;20.20;37.00;;;;;;5005374;28;19978;-54
2021/12/03 02:44:12;;;;;;;;;;;20.20;37.00;;;;;;5012649;28;20031;-52
2021/12/03 02:46:39;;;;;;;;;;;20.20;37.00;;;;;;4996156;28;19948;-54
2021/12/03 02:49:08;;;;;;;;;;;20.20;37.00;;;;;;5001628;28;19937;-53
2021/12/03 02:51:35;;;;;;;;;;;20.20;37.00;;;;;;4996192;28;19925;-50
2021/12/03 02:54:02;;;;;;;;;;;20.20;37.00;;;;;;5022137;28;19929;-53
2021/12/03 02:56:30;;;;;;;;;;;20.20;37.00;;;;;;5001138;28;19926;-51
2021/12/03 02:58:57;;;;;;;;;;;20.20;37.00;;;;;;5012461;28;19964;-49
2021/12/03 03:01:24;;;;;;;;;;;20.20;36.90;;;;;;5014229;28;19973;-52
2021/12/03 03:03:50;;;;;;;;;;;20.20;36.90;;;;;;5008451;28;19948;-55
2021/12/03 03:06:17;;;;;;;;;;;20.20;36.90;;;;;;4998771;28;19925;-54
2021/12/03 03:08:44;;;;;;;;;;;20.20;36.90;;;;;;5010491;28;20375;-51
2021/12/03 03:11:11;;;;;;;;;;;20.20;36.90;;;;;;4997581;28;20371;-54
2021/12/03 03:13:40;;;;;;;;;;;20.20;36.90;;;;;;5008821;28;19968;-50
2021/12/03 03:16:06;;;;;;;;;;;20.20;36.90;;;;;;5005190;28;19932;-53
2021/12/03 03:18:33;;;;;;;;;;;20.20;36.90;;;;;;4993501;28;20706;-56
2021/12/03 03:21:01;;;;;;;;;;;20.20;36.90;;;;;;5009955;28;19930;-52
2021/12/03 03:23:28;;;;;;;;;;;20.20;36.90;;;;;;5010832;28;19925;-50
2021/12/03 03:25:55;;;;;;;;;;;20.20;36.90;;;;;;4994034;28;19976;-52
2021/12/03 03:28:22;;;;;;;;;;;20.20;36.90;;;;;;5009047;28;19931;-52
2021/12/03 03:30:50;;;;;;;;;;;20.20;36.90;;;;;;5009106;28;20393;-48
2021/12/03 03:33:17;;;;;;;;;;;20.20;36.80;;;;;;5012125;28;20371;-52
2021/12/03 03:35:43;;;;;;;;;;;20.20;36.80;;;;;;4993474;28;19936;-52
2021/12/03 03:38:10;;;;;;;;;;;20.20;36.90;;;;;;4992971;28;19988;-51
2021/12/03 03:40:38;;;;;;;;;;;20.20;36.80;;;;;;5006710;28;19965;-55
2021/12/03 03:43:06;;;;;;;;;;;20.20;36.80;;;;;;5011296;28;19933;-52
2021/12/03 03:45:33;;;;;;;;;;;20.20;36.80;;;;;;5001406;28;19929;-52
2021/12/03 03:48:01;;;;;;;;;;;20.20;36.80;;;;;;5000128;28;19936;-53
2021/12/03 03:50:28;;;;;;;;;;;20.20;36.80;;;;;;5008588;28;20012;-49
2021/12/03 03:52:55;;;;;;;;;;;20.20;36.80;;;;;;5012098;28;19931;-52
2021/12/03 03:55:21;;;;;;;;;;;20.20;36.80;;;;;;4995897;28;19953;-53
2021/12/03 03:57:49;;;;;;;;;;;20.20;36.80;;;;;;4995537;28;19936;-53
2021/12/03 04:00:17;;;;;;;;;;;20.20;37.40;;;;;;4991626;28;19984;-55
2021/12/03 04:02:44;;;;;;;;;;;20.20;36.80;;;;;;4990390;28;19930;-53
2021/12/03 04:05:14;;;;;;;;;;;20.20;36.80;;;;;;4991514;28;19933;-56
2021/12/03 04:07:41;;;;;;;;;;;20.20;36.80;;;;;;5005789;28;20430;-52
2021/12/03 04:10:08;;;;;;;;;;;20.20;36.80;;;;;;4992681;28;19925;-55
2021/12/03 04:12:35;;;;;;;;;;;20.20;36.80;;;;;;5005506;28;19926;-53
2021/12/03 04:15:02;;;;;;;;;;;20.20;36.80;;;;;;4997629;28;19933;-53
2021/12/03 04:17:29;;;;;;;;;;;20.20;36.70;;;;;;4996362;28;19934;-53
2021/12/03 04:19:56;;;;;;;;;;;20.20;36.80;;;;;;4997182;28;19926;-49
2021/12/03 04:22:25;;;;;;;;;;;20.20;36.70;;;;;;4998320;28;19926;-54
2021/12/03 04:24:52;;;;;;;;;;;20.20;36.70;;;;;;5007755;28;20149;-52
2021/12/03 04:27:18;;;;;;;;;;;20.20;36.80;;;;;;4997599;28;19930;-51
2021/12/03 04:29:45;;;;;;;;;;;20.20;36.70;;;;;;5009075;28;19926;-49
2021/12/03 04:32:13;;;;;;;;;;;20.20;36.70;;;;;;4997649;28;19950;-51
2021/12/03 04:34:40;;;;;;;;;;;20.20;36.70;;;;;;5002832;28;20298;-49
2021/12/03 04:37:06;;;;;;;;;;;20.20;36.70;;;;;;5016327;28;19992;-52
2021/12/03 04:39:35;;;;;;;;;;;20.20;36.70;;;;;;4999883;28;20385;-52
2021/12/03 04:42:02;;;;;;;;;;;20.20;36.70;;;;;;4996416;28;19929;-50
2021/12/03 04:44:28;;;;;;;;;;;20.20;36.70;;;;;;5012585;28;19964;-50
2021/12/03 04:46:55;;;;;;;;;;;20.20;36.70;;;;;;5014975;28;20381;-54
2021/12/03 04:49:22;;;;;;;;;;;20.20;36.70;;;;;;5012255;28;19949;-52
2021/12/03 04:51:48;;;;;;;;;;;20.20;36.70;;;;;;4995094;28;19926;-50
2021/12/03 04:54:15;;;;;;;;;;;20.20;36.60;;;;;;4994519;28;19976;-50
2021/12/03 04:56:44;;;;;;;;;;;20.20;36.70;;;;;;4995671;28;20025;-50
2021/12/03 04:59:12;;;;;;;;;;;20.20;36.70;;;;;;4997273;28;19929;-53
2021/12/03 05:01:39;;;;;;;;;;;20.20;36.70;;;;;;5013521;28;19984;-50
2021/12/03 05:04:06;;;;;;;;;;;20.20;36.70;;;;;;4996399;28;20443;-50
2021/12/03 05:06:52;;;;;;;;;;;20.20;36.70;;;;;;5015655;28;20050;-51
2021/12/03 05:09:19;;;;;;;;;;;20.20;36.70;;;;;;5007488;28;19940;-51
2021/12/03 05:11:47;;;;;;;;;;;20.20;36.60;;;;;;5014355;28;20001;-51
2021/12/03 05:14:14;;;;;;;;;;;20.20;36.60;;;;;;5014049;28;20017;-53
2021/12/03 05:16:41;;;;;;;;;;;20.20;36.70;;;;;;4979417;28;20244;-51
2021/12/03 05:19:07;;;;;;;;;;;20.20;36.60;;;;;;4999029;28;20323;-51
2021/12/03 05:21:36;;;;;;;;;;;20.20;36.60;;;;;;4993585;28;20053;-57
2021/12/03 05:24:03;;;;;;;;;;;20.20;36.60;;;;;;4998646;28;19979;-55
2021/12/03 05:26:30;;;;;;;;;;;20.20;36.70;;;;;;4994811;28;19961;-52
2021/12/03 05:28:58;;;;;;;;;;;20.20;36.60;;;;;;5007834;28;21339;-51
2021/12/03 05:31:25;;;;;;;;;;;20.20;36.60;;;;;;5013310;28;19999;-49
2021/12/03 05:33:52;;;;;;;;;;;20.20;36.60;;;;;;5015462;28;19972;-51
2021/12/03 05:36:18;;;;;;;;;;;20.20;36.60;;;;;;4999426;28;19969;-53
2021/12/03 05:38:45;;;;;;;;;;;20.20;36.60;;;;;;4995914;28;20429;-50
2021/12/03 05:41:12;;;;;;;;;;;20.10;36.50;;;;;;4997249;28;19987;-53
2021/12/03 05:43:39;;;;;;;;;;;20.20;36.60;;;;;;4995009;28;19941;-57
2021/12/03 05:46:07;;;;;;;;;;;20.10;36.50;;;;;;4999915;28;19926;-51
2021/12/03 05:48:34;;;;;;;;;;;20.10;36.50;;;;;;4996722;28;20437;-50
2021/12/03 05:51:00;;;;;;;;;;;20.10;36.50;;;;;;4996777;28;20379;-49
2021/12/03 05:53:27;;;;;;;;;;;20.20;36.60;;;;;;4993719;28;19926;-49
2021/12/03 05:55:54;;;;;;;;;;;20.20;36.60;;;;;;5007801;28;19964;-52
2021/12/03 05:58:21;;;;;;;;;;;20.20;36.60;;;;;;5013883;28;19940;-54
2021/12/03 06:00:47;;;;;;;;;;;20.10;36.50;;;;;;5003008;28;20414;-51
2021/12/03 06:03:16;;;;;;;;;;;20.20;36.60;;;;;;4994905;28;20280;-53
2021/12/03 06:05:43;;;;;;;;;;;20.20;36.60;;;;;;4994950;28;19925;-49
2021/12/03 06:08:10;;;;;;;;;;;20.20;36.50;;;;;;5010788;28;19926;-52
2021/12/03 06:10:37;;;;;;;;;;;20.10;36.40;;;;;;4994185;28;19926;-52
2021/12/03 06:13:04;;;;;;;;;;;20.10;36.50;;;;;;4994695;28;19969;-51
2021/12/03 06:15:31;;;;;;;;;;;20.10;36.40;;;;;;4999868;28;19925;-54
2021/12/03 06:17:58;;;;;;;;;;;20.20;36.50;;;;;;5014880;28;19933;-52
2021/12/03 06:20:26;;;;;;;;;;;20.20;36.50;;;;;;5008411;28;19969;-52
2021/12/03 06:22:53;;;;;;;;;;;20.10;36.40;;;;;;4994117;28;19925;-50
2021/12/03 06:25:20;;;;;;;;;;;20.10;36.50;;;;;;4996029;28;20020;-54
2021/12/03 06:27:47;;;;;;;;;;;20.20;36.60;;;;;;4994310;28;19933;-55
2021/12/03 06:30:15;;;;;;;;;;;20.20;36.60;;;;;;4998665;28;20995;-54
2021/12/03 06:32:42;;;;;;;;;;;20.10;36.50;;;;;;5012838;28;19925;-53
2021/12/03 06:35:09;;;;;;;;;;;20.20;36.60;;;;;;5007416;28;19926;-54
2021/12/03 06:37:38;;;;;;;;;;;20.10;36.50;;;;;;4993933;28;19937;-54
2021/12/03 06:40:05;;;;;;;;;;;20.20;36.50;;;;;;4993954;28;19930;-54
2021/12/03 06:42:32;;;;;;;;;;;20.10;36.40;;;;;;5002096;28;20025;-56
2021/12/03 06:44:59;;;;;;;;;;;20.20;36.50;;;;;;4994004;28;19933;-58
2021/12/03 06:47:25;;;;;;;;;;;20.20;36.50;;;;;;4992944;28;19926;-55
2021/12/03 06:49:52;;;;;;;;;;;20.10;36.40;;;;;;4995200;28;19932;-56
2021/12/03 06:52:19;;;;;;;;;;;20.10;36.40;;;;;;5002018;28;19964;-56
2021/12/03 06:54:55;;;;;;;;;;;20.10;36.40;;;;;;5001040;28;19930;-55
2021/12/03 06:57:21;;;;;;;;;;;20.10;36.40;;;;;;5001297;28;19936;-55
2021/12/03 06:59:48;;;;;;;;;;;20.10;36.40;;;;;;5003725;28;20001;-56
2021/12/03 07:02:15;;;;;;;;;;;20.20;36.50;;;;;;5001578;28;20405;-56
2021/12/03 07:04:43;;;;;;;;;;;20.20;36.50;;;;;;5002177;28;19925;-54
2021/12/03 07:07:10;;;;;;;;;;;20.20;36.50;;;;;;4997976;28;19943;-53
2021/12/03 07:09:37;;;;;;;;;;;20.10;36.40;;;;;;5000336;28;19925;-57
2021/12/03 07:12:08;;;;;;;;;;;20.10;36.40;;;;;;4999864;28;19925;-55
2021/12/03 07:14:35;;;;;;;;;;;20.20;36.50;;;;;;5001006;28;19957;-54
2021/12/03 07:17:05;;;;;;;;;;;20.10;36.40;;;;;;5000503;28;19945;-56
2021/12/03 07:19:32;;;;;;;;;;;20.10;36.40;;;;;;5002059;28;19937;-54
2021/12/03 07:21:59;;;;;;;;;;;20.10;36.40;;;;;;5005238;28;19930;-54
2021/12/03 07:24:26;;;;;;;;;;;20.10;36.40;;;;;;5000970;28;19935;-51
2021/12/03 07:26:52;;;;;;;;;;;20.10;36.40;;;;;;4999607;28;20017;-55
2021/12/03 07:29:20;;;;;;;;;;;20.20;36.50;;;;;;5007035;28;19992;-49
2021/12/03 07:31:47;;;;;;;;;;;20.20;36.50;;;;;;5002295;28;19930;-49
2021/12/03 07:34:15;;;;;;;;;;;20.10;36.40;;;;;;5000390;28;19960;-54
2021/12/03 07:36:42;;;;;;;;;;;20.10;36.40;;;;;;4997326;28;19933;-52
2021/12/03 07:39:09;;;;;;;;;;;20.10;36.40;;;;;;5000597;28;20570;-49
2021/12/03 07:41:40;;;;;;;;;;;20.10;36.40;;;;;;5005894;28;19926;-52
2021/12/03 07:44:07;;;;;;;;;;;20.10;36.40;;;;;;5005753;28;19929;-50
2021/12/03 07:46:35;;;;;;;;;;;20.10;36.40;;;;;;4999165;28;19972;-52
2021/12/03 07:49:02;;;;;;;;;;;20.10;36.40;;;;;;4997611;28;20411;-49
2021/12/03 07:51:29;;;;;;;;;;;20.10;36.40;;;;;;5003858;28;19926;-57
2021/12/03 07:53:56;;;;;;;;;;;20.10;36.40;;;;;;4994779;28;19984;-55
2021/12/03 07:56:23;;;;;;;;;;;20.20;36.50;;;;;;5010722;28;19952;-51
2021/12/03 07:58:50;;;;;;;;;;;20.10;36.40;;;;;;4996127;28;19925;-53
2021/12/03 08:01:16;;;;;;;;;;;20.10;36.40;;;;;;5002422;28;19937;-54
2021/12/03 08:03:45;;;;;;;;;;;20.10;36.40;;;;;;5001563;28;19926;-51
2021/12/03 08:06:13;;;;;;;;;;;20.20;36.50;;;;;;4998368;28;20347;-57
2021/12/03 08:08:41;;;;;;;;;;;20.10;36.10;;;;;;4996206;28;19948;-61
2021/12/03 08:11:07;;;;;;;;;;;20.10;31.30;;;;;;4991585;28;20039;-54
2021/12/03 08:13:34;;;;;;;;;;;19.90;29.20;;;;;;5003293;28;20020;-51
2021/12/03 08:16:01;;;;;;;;;;;19.70;30.00;;;;;;5002825;28;19925;-53
2021/12/03 08:18:28;;;;;;;;;;;19.60;30.30;;;;;;5002918;28;19929;-49
2021/12/03 08:20:56;;;;;;;;;;;19.40;30.90;;;;;;4993247;28;20020;-50
2021/12/03 08:23:24;;;;;;;;;;;19.40;31.70;;;;;;4988100;28;19949;-49
2021/12/03 08:25:50;;;;;;;;;;;19.30;32.20;;;;;;4997349;28;19926;-51
2021/12/03 08:28:17;;;;;;;;;;;19.30;32.70;;;;;;5005998;28;19926;-53
2021/12/03 08:30:44;;;;;;;;;;;19.30;33.10;;;;;;5007403;28;19937;-48
2021/12/03 08:33:11;;;;;;;;;;;19.30;33.40;;;;;;4992998;28;19932;-53
2021/12/03 08:35:38;;;;;;;;;;;19.30;33.60;;;;;;5004864;28;20437;-53
2021/12/03 08:38:06;;;;;;;;;;;19.30;33.80;;;;;;5009331;28;19926;-50
2021/12/03 08:40:33;;;;;;;;;;;19.40;34.00;;;;;;5003744;28;19938;-50
2021/12/03 08:43:00;;;;;;;;;;;19.40;34.10;;;;;;5004166;28;19933;-59
2021/12/03 08:45:27;;;;;;;;;;;19.40;34.30;;;;;;5001184;28;19934;-51
2021/12/03 08:47:57;;;;;;;;;;;19.50;34.40;;;;;;5001551;28;20379;-55
2021/12/03 08:50:29;;;;;;;;;;;19.50;34.50;;;;;;5000841;28;19939;-55
2021/12/03 08:54:47;;;;;;;;;;;19.50;34.60;;;;;;5000535;28;19936;-52
2021/12/03 08:56:06;;;;;;;;;;;19.60;34.70;;;;;;5000424;28;19930;-51
2021/12/03 08:58:32;;;;;;;;;;;19.60;34.80;;;;;;4998399;28;20024;-54
2021/12/03 09:00:59;;;;;;;;;;;19.60;34.90;;;;;;5003942;28;20012;-53
2021/12/03 09:03:26;;;;;;;;;;;19.60;34.90;;;;;;4999747;28;19972;-56
2021/12/03 09:05:53;;;;;;;;;;;19.70;35.10;;;;;;5012005;28;20417;-55
2021/12/03 09:08:20;;;;;;;;;;;19.70;35.10;;;;;;4996141;28;19926;-55
2021/12/03 09:10:46;;;;;;;;;;;19.60;35.10;;;;;;5003839;28;19992;-55
2021/12/03 09:13:15;;;;;;;;;;;19.70;35.20;;;;;;5018586;28;20288;-54
2021/12/03 09:15:45;;;;;;;;;;;19.70;35.20;;;;;;4997743;28;19938;-53
2021/12/03 09:18:20;;;;;;;;;;;19.70;35.20;;;;;;5000973;28;20378;-52
2021/12/03 09:20:54;;;;;;;;;;;19.70;35.30;;;;;;4999842;28;20124;-53
2021/12/03 09:23:27;;;;;;;;;;;19.80;35.40;;;;;;5002217;28;19983;-51
2021/12/03 09:25:56;;;;;;;;;;;19.80;35.40;;;;;;5001206;28;19965;-51
2021/12/03 09:28:27;;;;;;;;;;;19.80;35.50;;;;;;5000749;28;19929;-49
2021/12/03 09:30:54;;;;;;;;;;;19.80;35.50;;;;;;4996946;28;19932;-54
2021/12/03 09:33:25;;;;;;;;;;;19.80;35.50;;;;;;4998629;28;19925;-51
2021/12/03 09:35:55;;;;;;;;;;;19.90;35.60;;;;;;5000202;28;19952;-51
2021/12/03 09:38:24;;;;;;;;;;;19.90;35.60;;;;;;5003489;28;19930;-52
2021/12/03 09:40:51;;;;;;;;;;;19.90;35.60;;;;;;4997725;28;20425;-50
2021/12/03 09:43:20;;;;;;;;;;;19.90;35.60;;;;;;5000049;28;20350;-53
2021/12/03 09:45:57;;;;;;;;;;;19.90;35.70;;;;;;4998333;28;19980;-53
2021/12/03 09:48:35;;;;;;;;;;;19.90;35.70;;;;;;5002338;28;20047;-50
2021/12/03 09:51:02;;;;;;;;;;;19.90;35.70;;;;;;4995740;28;19938;-50
2021/12/03 09:53:45;;;;;;;;;;;19.90;35.70;;;;;;4995837;28;19933;-50
2021/12/03 09:56:13;;;;;;;;;;;19.90;35.80;;;;;;4994361;28;20311;-54
2021/12/03 09:59:08;;;;;;;;;;;19.90;35.80;;;;;;4999856;28;19973;-56
2021/12/03 10:01:38;;;;;;;;;;;20.00;35.90;;;;;;4998842;28;19999;-53
2021/12/03 10:04:22;;;;;;;;;;;20.00;35.90;;;;;;5003172;28;19933;-52
2021/12/03 10:12:43;;;;;;;;;;;20.00;35.90;;;;;;5002895;28;20369;-51
2021/12/03 10:15:11;;;;;;;;;;;20.00;36.00;;;;;;4998787;28;19964;-57
2021/12/03 10:17:48;;;;;;;;;;;20.00;36.00;;;;;;5004881;28;20028;-55
2021/12/03 10:20:22;;;;;;;;;;;20.00;36.00;;;;;;4994051;28;19953;-58
2021/12/03 10:37:16;;;;;;;;;;;20.10;36.70;;;;;;4993412;28;20255;-53
2021/12/03 10:39:49;;;;;;;;;;;20.10;36.10;;;;;;5002871;28;20453;-53
2021/12/03 10:42:23;;;;;;;;;;;20.10;36.10;;;;;;5000466;28;20013;-52
2021/12/03 10:45:00;;;;;;;;;;;20.10;36.10;;;;;;4997969;28;19925;-51
2021/12/03 10:47:37;;;;;;;;;;;20.10;36.10;;;;;;5004420;28;19945;-57
2021/12/03 10:50:12;;;;;;;;;;;20.10;36.10;;;;;;5001727;28;20012;-55
2021/12/03 10:52:51;;;;;;;;;;;20.10;36.10;;;;;;4982585;28;20025;-56
2021/12/03 10:55:47;;;;;;;;;;;20.10;36.10;;;;;;4998078;28;19932;-52
2021/12/03 11:12:39;;;;;;;;;;;20.10;36.20;;;;;;5006116;28;19944;-50
2021/12/03 11:29:12;;;;;;;;;;;20.20;36.30;;;;;;4994225;28;19992;-49
2021/12/03 11:37:47;;;;;;;;;;;20.20;36.30;;;;;;5002157;28;19961;-51
2021/12/03 11:40:50;;;;;;;;;;;20.20;36.30;;;;;;5011491;28;19926;-55
2021/12/03 11:58:42;;;;;;;;;;;20.20;36.40;;;;;;4994747;28;19930;-55
2021/12/03 12:19:15;;;;;;;;;;;20.20;36.40;;;;;;4996709;28;19934;-55
2021/12/03 13:15:54;;;;;;;;;;;20.30;36.40;;;;;;4976775;28;19948;-51
2021/12/03 14:39:07;;;;;;;;;;;20.30;36.40;;;;;;4995696;28;20279;-52
2021/12/03 14:41:39;;;;;;;;;;;20.40;36.50;;;;;;4996282;28;19930;-52
2021/12/03 14:44:18;;;;;;;;;;;20.40;36.50;;;;;;5001305;28;19926;-54
2021/12/03 14:52:13;;;;;;;;;;;20.40;36.50;;;;;;4995920;28;20404;-55
2021/12/03 14:54:58;;;;;;;;;;;20.40;36.40;;;;;;5009199;28;19930;-52
2021/12/03 14:57:37;;;;;;;;;;;20.40;36.40;;;;;;4998046;28;19930;-52
2021/12/03 15:00:14;;;;;;;;;;;20.40;36.40;;;;;;4999394;28;19991;-49
2021/12/03 15:02:56;;;;;;;;;;;20.40;36.40;;;;;;5001219;28;19932;-52
2021/12/03 15:05:39;;;;;;;;;;;20.40;36.40;;;;;;4995289;28;19991;-51
2021/12/03 15:08:07;;;;;;;;;;;20.40;36.40;;;;;;4997837;28;20441;-53
2021/12/03 15:10:46;;;;;;;;;;;20.40;36.40;;;;;;5001088;28;19930;-55
2021/12/03 15:13:27;;;;;;;;;;;20.40;36.40;;;;;;5000774;28;20342;-55
2021/12/03 15:18:56;;;;;;;;;;;20.40;36.40;;;;;;5020703;28;19933;-55
2021/12/03 15:30:10;;;;;;;;;;;20.40;36.40;;;;;;4957066;28;19985;-50
2021/12/03 15:32:42;;;;;;;;;;;20.40;36.40;;;;;;4995405;28;20024;-50
2021/12/03 15:35:14;;;;;;;;;;;20.40;36.40;;;;;;4996902;28;19977;-51
2021/12/03 15:40:39;;;;;;;;;;;20.40;36.40;;;;;;4993396;28;20302;-53
2021/12/03 16:05:13;;;;;;;;;;;20.40;33.30;;;;;;5004364;28;19929;-54
2021/12/03 16:08:02;;;;;;;;;;;20.30;30.30;;;;;;5008783;28;19925;-54
2021/12/03 16:10:34;;;;;;;;;;;20.10;31.30;;;;;;5005996;28;19975;-49
2021/12/03 16:13:12;;;;;;;;;;;20.00;32.50;;;;;;5008758;28;20024;-52
2021/12/03 16:18:43;;;;;;;;;;;19.90;33.60;;;;;;5004021;28;19925;-51
2021/12/03 16:21:30;;;;;;;;;;;19.90;34.00;;;;;;5016078;28;19940;-55
2021/12/03 16:43:46;;;;;;;;;;;20.00;35.30;;;;;;5003478;28;19933;-56
2021/12/03 16:46:26;;;;;;;;;;;20.00;35.30;;;;;;5007776;28;19981;-53
2021/12/03 16:51:45;;;;;;;;;;;20.10;35.50;;;;;;4999086;28;20347;-54
2021/12/03 16:54:13;;;;;;;;;;;20.10;35.50;;;;;;5004929;28;19965;-55
2021/12/03 16:56:43;;;;;;;;;;;20.10;35.60;;;;;;5005352;28;19953;-53
2021/12/03 16:59:11;;;;;;;;;;;20.10;35.60;;;;;;4997447;28;19926;-52
2021/12/03 17:01:43;;;;;;;;;;;20.10;35.60;;;;;;5004632;28;20023;-58
2021/12/03 17:04:22;;;;;;;;;;;20.10;35.60;;;;;;5006809;28;19926;-57
2021/12/03 17:09:58;;;;;;;;;;;20.10;35.60;;;;;;4997691;28;19940;-55
2021/12/03 17:12:41;;;;;;;;;;;20.10;35.70;;;;;;5003149;28;19925;-55
2021/12/03 17:18:52;;;;;;;;;;;20.20;35.80;;;;;;4977945;28;19933;-62
2021/12/03 17:49:01;;;;;;;;;;;19.80;34.70;;;;;;5000840;28;19960;-53
2021/12/03 17:54:28;;;;;;;;;;;19.90;35.10;;;;;;5004187;28;19930;-55
2021/12/03 17:56:59;;;;;;;;;;;20.80;35.90;;;;;;5001383;28;20031;-52
2021/12/03 17:59:30;;;;;;;;;;;22.10;34.80;;;;;;5007423;28;20071;-56
2021/12/03 18:02:03;;;;;;;;;;;22.80;33.80;;;;;;4994806;28;19980;-52
2021/12/03 18:04:41;;;;;;;;;;;23.10;33.10;;;;;;5006392;28;19954;-52
2021/12/03 18:07:21;;;;;;;;;;;23.20;32.90;;;;;;4995325;28;19981;-55
2021/12/03 18:10:25;;;;;;;;;;;23.30;32.70;;;;;;4997330;28;20589;-49
2021/12/03 18:13:18;;;;;;;;;;;24.20;32.10;;;;;;4995548;28;19940;-50
2021/12/03 18:49:05;;;;;;;;;;;32.70;23.70;;;;;;5001347;28;19945;-46
2021/12/03 18:51:48;;;;;;;;;;;33.00;23.70;;;;;;4996768;28;19930;-50
2021/12/03 18:57:11;;;;;;;;;;;33.30;23.40;;;;;;4997926;28;19926;-49
2021/12/03 18:59:41;;;;;;;;;;;33.50;23.20;;;;;;4989171;28;20000;-51
2021/12/03 19:02:09;;;;;;;;;;;33.70;23.00;;;;;;5015662;28;20395;-48
2021/12/03 19:04:44;;;;;;;;;;;33.90;22.90;;;;;;4993726;28;19987;-50
2021/12/03 19:07:14;;;;;;;;;;;34.10;22.90;;;;;;4993474;28;19936;-48
2021/12/03 19:09:45;;;;;;;;;;;34.30;22.80;;;;;;4995419;28;19925;-56
2021/12/03 19:12:15;;;;;;;;;;;34.00;23.20;;;;;;4992125;28;20397;-55
2021/12/03 19:14:48;;;;;;;;;;;33.60;23.50;;;;;;4988926;28;19938;-53
2021/12/03 19:17:28;;;;;;;;;;;33.00;23.40;;;;;;4994474;28;19977;-48
2021/12/03 19:19:57;;;;;;;;;;;32.40;23.70;;;;;;4996529;28;19968;-53
2021/12/03 19:22:24;;;;;;;;;;;31.90;24.20;;;;;;5000536;28;19936;-48
2021/12/03 19:24:57;;;;;;;;;;;31.30;24.40;;;;;;5000187;28;19988;-54
2021/12/03 19:27:25;;;;;;;;;;;30.90;24.90;;;;;;4992785;28;19937;-52
2021/12/03 19:29:54;;;;;;;;;;;30.40;25.40;;;;;;4999701;28;19926;-53
2021/12/03 19:32:21;;;;;;;;;;;30.00;25.90;;;;;;4993057;28;19934;-53
2021/12/03 19:34:49;;;;;;;;;;;29.50;26.20;;;;;;4990691;28;20272;-51
2021/12/03 19:37:15;;;;;;;;;;;29.20;26.80;;;;;;4992668;28;19933;-48
2021/12/03 19:39:42;;;;;;;;;;;28.80;27.20;;;;;;4993658;28;20101;-53
2021/12/03 19:42:13;;;;;;;;;;;28.50;27.80;;;;;;4987871;28;19980;-51
2021/12/03 19:44:44;;;;;;;;;;;28.20;28.10;;;;;;5007654;28;20012;-49
2021/12/03 19:47:12;;;;;;;;;;;27.90;28.50;;;;;;5001017;28;20395;-56
2021/12/03 19:49:47;;;;;;;;;;;27.60;28.80;;;;;;5004592;28;20445;-53
2021/12/03 19:52:23;;;;;;;;;;;27.40;29.20;;;;;;4983601;28;19961;-54
2021/12/03 19:54:56;;;;;;;;;;;27.20;29.30;;;;;;4990942;28;20012;-54
2021/12/03 19:57:25;;;;;;;;;;;27.00;29.50;;;;;;5006569;28;19937;-56
2021/12/03 19:59:52;;;;;;;;;;;26.80;29.60;;;;;;5001212;28;19929;-52
2021/12/03 20:02:19;;;;;;;;;;;26.60;29.70;;;;;;5005358;28;19938;-56
2021/12/03 20:04:47;;;;;;;;;;;26.50;29.70;;;;;;4994217;28;19937;-53
2021/12/03 20:07:14;;;;;;;;;;;26.30;29.70;;;;;;4995103;28;19940;-57
2021/12/03 20:09:46;;;;;;;;;;;26.20;29.90;;;;;;4983908;28;19930;-56
2021/12/03 20:12:15;;;;;;;;;;;26.00;29.90;;;;;;5003410;28;20025;-50
2021/12/03 20:14:45;;;;;;;;;;;25.90;30.10;;;;;;5005603;28;19937;-53
2021/12/03 20:17:19;;;;;;;;;;;25.80;30.30;;;;;;5011193;28;20343;-50
2021/12/03 20:19:50;;;;;;;;;;;25.70;30.50;;;;;;5002204;28;19929;-57
2021/12/03 20:22:21;;;;;;;;;;;25.60;30.70;;;;;;5004048;28;19929;-55
2021/12/03 20:25:11;;;;;;;;;;;25.50;30.80;;;;;;5011130;28;19934;-52
2021/12/03 20:27:44;;;;;;;;;;;25.30;30.80;;;;;;5008994;28;19925;-56
2021/12/03 20:30:22;;;;;;;;;;;25.30;31.00;;;;;;5005534;28;20000;-51
2021/12/03 20:33:12;;;;;;;;;;;25.20;31.20;;;;;;5002460;28;20041;-57
2021/12/03 20:36:07;;;;;;;;;;;25.10;31.30;;;;;;5011955;28;19925;-55